Time;durP1;ratioP1;P1;durP2;ratioP2;P2;SDS_P1;SDS_P2;PMS_P1;PMS_P2;Temp;Humidity;BMP_temperature;BMP_pressure;BME280_temperature;BME280_humidity;BME280_pressure;Samples;Min_cycle;Max_cycle;Signal;HPM_P1;HPM_P2
2023/09/28 18:19:51;;;;;;;54.55;27.60;;;;;;;21.31;84.44;101452.78;5069107;28;20343;-73
2023/09/28 18:22:16;;;;;;;53.15;28.30;;;;;;;21.40;84.75;101445.25;5069474;28;20429;-74
2023/09/28 18:24:42;;;;;;;54.90;30.40;;;;;;;21.43;84.69;101441.59;5051891;28;20380;-73
2023/09/28 18:27:07;;;;;;;58.47;32.83;;;;;;;21.48;84.99;101447.53;5069113;28;20383;-74
2023/09/28 18:29:33;;;;;;;57.60;34.35;;;;;;;21.48;85.01;101437.75;5068767;28;20382;-73
2023/09/28 18:32:01;;;;;;;56.83;37.13;;;;;;;21.48;84.71;101442.22;5051794;28;20421;-75
2023/09/28 18:34:28;;;;;;;65.20;41.07;;;;;;;21.50;85.00;101451.00;5069690;28;20383;-75
2023/09/28 18:36:57;;;;;;;69.30;45.27;;;;;;;21.48;84.91;101458.19;5071071;28;20394;-71
2023/09/28 18:39:22;;;;;;;71.22;48.70;;;;;;;21.49;84.65;101451.91;5069346;28;20391;-72
2023/09/28 18:41:51;;;;;;;77.97;52.97;;;;;;;21.48;84.69;101445.72;5071595;28;20390;-74
2023/09/28 18:44:18;;;;;;;82.38;57.58;;;;;;;21.48;84.79;101451.06;5067925;28;20410;-71
2023/09/28 18:46:47;;;;;;;86.07;61.15;;;;;;;21.47;84.71;101451.16;5069121;28;20394;-73
2023/09/28 18:49:12;;;;;;;90.72;64.30;;;;;;;21.47;84.78;101457.31;5069884;28;20486;-72
2023/09/28 18:51:40;;;;;;;93.90;67.43;;;;;;;21.48;84.46;101456.38;5053603;28;20396;-72
2023/09/28 18:54:08;;;;;;;97.30;70.78;;;;;;;21.47;84.40;101459.13;5074975;28;20378;-71
2023/09/28 18:56:35;;;;;;;98.43;75.67;;;;;;;21.47;84.56;101462.66;5063956;28;20383;-71
2023/09/28 18:59:03;;;;;;;127.70;90.80;;;;;;;21.49;84.45;101449.25;5068699;28;20489;-76
2023/09/28 19:01:29;;;;;;;128.60;95.05;;;;;;;21.50;84.27;101451.00;5069001;28;20450;-70
2023/09/28 19:03:54;;;;;;;132.33;94.87;;;;;;;21.49;84.17;101459.91;5068555;28;20370;-72
2023/09/28 19:06:20;;;;;;;128.67;95.40;;;;;;;21.48;84.37;101453.72;5068279;28;20721;-74
2023/09/28 19:08:48;;;;;;;131.27;98.23;;;;;;;21.48;84.15;101453.72;5069159;28;20371;-74
2023/09/28 19:11:16;;;;;;;133.38;97.65;;;;;;;21.48;84.37;101458.19;5034873;28;20383;-73
2023/09/28 19:13:46;;;;;;;134.13;100.80;;;;;;;21.48;84.45;101458.19;5067097;28;20379;-73
2023/09/28 19:16:12;;;;;;;134.65;101.80;;;;;;;21.47;84.25;101459.13;5067568;28;20425;-73
2023/09/28 19:18:37;;;;;;;135.03;102.27;;;;;;;21.46;84.27;101452.91;5068009;28;20744;-75
2023/09/28 19:21:04;;;;;;;137.10;104.20;;;;;;;21.46;84.27;101465.38;5068451;28;20379;-72
2023/09/28 19:23:29;;;;;;;138.07;103.60;;;;;;;21.46;84.09;101458.25;5068392;28;20425;-73
2023/09/28 19:25:58;;;;;;;136.40;104.55;;;;;;;21.47;84.13;101461.78;5067987;28;20490;-73
2023/09/28 19:28:26;;;;;;;148.20;108.55;;;;;;;21.48;83.77;101463.50;5067236;28;20383;-76
2023/09/28 19:30:55;;;;;;;151.80;112.97;;;;;;;21.49;83.78;101465.22;5055551;28;20387;-77
2023/09/28 19:33:22;;;;;;;152.73;113.80;;;;;;;21.47;83.68;101457.31;5058362;28;20376;-76
2023/09/28 19:35:48;;;;;;;150.43;115.07;;;;;;;21.45;83.63;101464.50;5053868;28;20459;-76
2023/09/28 19:38:13;;;;;;;152.33;115.03;;;;;;;21.47;83.60;101459.13;5058572;28;20725;-76
2023/09/28 19:40:39;;;;;;;154.63;117.30;;;;;;;21.46;83.48;101460.06;5053439;28;20402;-74
2023/09/28 19:43:04;;;;;;;150.57;115.60;;;;;;;21.46;83.71;101465.38;5059800;28;20380;-76
2023/09/28 19:45:30;;;;;;;153.77;116.20;;;;;;;21.46;83.79;101460.06;5055305;28;20387;-79
2023/09/28 19:47:55;;;;;;;148.97;113.27;;;;;;;21.45;83.67;101453.00;5054211;28;20386;-73
2023/09/28 19:50:22;;;;;;;151.50;117.33;;;;;;;21.45;83.48;101453.00;5053516;28;20394;-73
2023/09/28 19:52:50;;;;;;;147.70;114.60;;;;;;;21.44;83.48;101452.13;5053791;28;20817;-74
2023/09/28 19:55:16;;;;;;;146.32;112.90;;;;;;;21.44;83.43;101452.13;5054239;28;20848;-75
2023/09/28 19:57:41;;;;;;;149.27;115.20;;;;;;;21.45;83.46;101453.88;5053702;28;20404;-74
2023/09/28 20:00:10;;;;;;;151.00;115.43;;;;;;;21.44;83.50;101452.13;5054700;28;20380;-76
2023/09/28 20:02:36;;;;;;;148.38;113.50;;;;;;;21.46;83.44;101457.38;5060843;28;20947;-76
2023/09/28 20:05:05;;;;;;;149.45;113.20;;;;;;;21.44;83.30;101461.91;5069748;28;20383;-74
2023/09/28 20:07:31;;;;;;;144.10;110.82;;;;;;;21.44;83.50;101460.09;5047346;28;20418;-73
2023/09/28 20:10:01;;;;;;;145.82;114.55;;;;;;;21.44;83.34;101461.91;5054762;28;20466;-72
2023/09/28 20:12:27;;;;;;;143.68;111.28;;;;;;;21.46;83.40;101460.06;5060564;28;20384;-74
2023/09/28 20:14:52;;;;;;;146.30;116.22;;;;;;;21.52;83.22;101457.09;5054219;28;20384;-77
2023/09/28 20:17:17;;;;;;;151.57;116.10;;;;;;;21.64;82.66;101464.50;5060813;28;20385;-77
2023/09/28 20:19:44;;;;;;;148.65;117.13;;;;;;;21.82;82.09;101459.19;5054314;28;20402;-80
2023/09/28 20:22:11;;;;;;;149.35;112.00;;;;;;;22.00;80.50;101454.78;5054674;28;20874;-73
2023/09/28 20:24:44;;;;;;;149.23;111.25;;;;;;;21.95;80.32;101452.34;5053218;28;20390;-82
2023/09/28 20:27:14;;;;;;;145.18;110.60;;;;;;;21.89;80.69;101457.97;5059181;28;20389;-78
2023/09/28 20:29:41;;;;;;;137.68;105.72;;;;;;;21.85;80.80;101451.09;5054107;28;20831;-76
2023/09/28 20:32:09;;;;;;;132.40;101.60;;;;;;;21.82;80.91;101460.09;5054194;28;20376;-76
2023/09/28 20:34:35;;;;;;;128.95;98.20;;;;;;;21.83;80.79;101453.81;5053902;28;20380;-75
2023/09/28 20:37:00;;;;;;;120.80;93.97;;;;;;;21.79;81.16;101451.38;5054170;28;20449;-76
2023/09/28 20:39:28;;;;;;;116.97;89.95;;;;;;;21.80;81.11;101453.13;5053607;28;20400;-73
2023/09/28 20:41:53;;;;;;;116.47;88.38;;;;;;;21.80;80.92;101453.13;5053278;28;20441;-78
2023/09/28 20:44:18;;;;;;;112.07;85.85;;;;;;;21.77;81.13;101453.25;5052929;28;20372;-75
2023/09/28 20:46:44;;;;;;;111.57;85.70;;;;;;;21.82;80.72;101451.22;5053475;28;20376;-77
2023/09/28 20:49:09;;;;;;;104.63;80.20;;;;;;;21.81;80.61;101445.03;5053953;28;20375;-77
2023/09/28 20:51:35;;;;;;;103.13;79.60;;;;;;;21.78;80.84;101449.66;5052464;28;20387;-78
2023/09/28 20:54:02;;;;;;;98.23;75.87;;;;;;;21.81;80.82;101446.84;5053084;28;20383;-79
2023/09/28 20:56:30;;;;;;;97.10;73.87;;;;;;;21.81;80.71;101447.69;5036469;28;20383;-79
2023/09/28 20:58:56;;;;;;;91.10;71.82;;;;;;;21.80;80.74;101448.66;5053121;28;20395;-78
2023/09/28 21:01:21;;;;;;;90.93;69.75;;;;;;;21.79;80.69;101451.38;5052652;28;20763;-78
2023/09/28 21:03:49;;;;;;;88.97;67.23;;;;;;;21.79;80.39;101451.38;5059497;28;20829;-74
2023/09/28 21:06:17;;;;;;;82.35;64.43;;;;;;;21.78;80.44;101452.31;5053312;28;20390;-77
2023/09/28 21:08:42;;;;;;;82.45;62.85;;;;;;;21.80;80.46;101453.97;5059961;28;20372;-80
2023/09/28 21:11:20;;;;;;;78.40;60.55;;;;;;;21.79;80.33;101456.69;5052421;28;20403;-75
2023/09/28 21:13:45;;;;;;;77.55;61.03;;;;;;;21.79;80.26;101457.56;5052352;28;20368;-77
2023/09/28 21:16:13;;;;;;;74.57;57.80;;;;;;;21.75;80.33;101461.31;5053124;28;20833;-77
2023/09/28 21:18:38;;;;;;;73.15;57.17;;;;;;;21.77;80.15;101464.75;5059303;28;20407;-77
2023/09/28 21:21:04;;;;;;;70.57;54.63;;;;;;;21.78;80.26;101465.63;5052749;28;20391;-75
2023/09/28 21:23:34;;;;;;;70.03;54.53;;;;;;;21.79;79.91;101467.34;5053061;28;20380;-76
2023/09/28 21:26:01;;;;;;;66.68;52.25;;;;;;;21.78;80.10;101461.16;5053472;28;20425;-77
2023/09/28 21:28:30;;;;;;;65.32;50.28;;;;;;;21.78;79.98;101455.00;5052902;28;20467;-75
2023/09/28 21:30:56;;;;;;;62.83;49.50;;;;;;;21.76;80.14;101463.03;5048321;28;20447;-77
2023/09/28 21:33:21;;;;;;;62.63;49.00;;;;;;;21.77;79.87;101459.44;5052351;28;20391;-77
2023/09/28 21:35:46;;;;;;;59.28;47.05;;;;;;;21.72;80.07;101461.44;5052767;28;20371;-72
2023/09/28 21:38:12;;;;;;;58.03;45.17;;;;;;;21.76;80.02;101468.38;5053973;28;20399;-80
2023/09/28 21:40:37;;;;;;;58.27;46.00;;;;;;;21.79;79.84;101464.69;5052556;28;20768;-75
2023/09/28 21:43:03;;;;;;;69.07;43.83;;;;;;;21.65;80.33;101463.53;5052549;28;20383;-74
2023/09/28 21:45:28;;;;;;;71.03;43.65;;;;;;;21.68;78.62;101460.75;5052988;28;20384;-69
2023/09/28 21:47:56;;;;;;;57.20;38.73;;;;;;;21.59;75.02;101455.88;5052155;28;20414;-73
2023/09/28 21:50:22;;;;;;;55.80;38.85;;;;;;;21.42;76.34;101463.78;5052405;28;20458;-72
2023/09/28 21:52:50;;;;;;;52.53;38.58;;;;;;;21.34;77.76;101460.59;5052790;28;20896;-73
2023/09/28 21:55:18;;;;;;;55.00;37.75;;;;;;;21.28;77.71;101462.63;5053029;28;20371;-72
2023/09/28 21:57:44;;;;;;;50.60;38.37;;;;;;;21.25;77.98;101456.56;5049431;28;20466;-73
2023/09/28 22:02:58;;;;;;;51.83;38.10;;;;;;;21.22;80.09;101452.25;5051724;28;20410;-71
2023/09/28 22:05:26;;;;;;;46.92;37.15;;;;;;;21.19;79.39;101447.09;5052051;28;20463;-72
2023/09/28 22:07:51;;;;;;;47.85;35.20;;;;;;;21.18;80.37;101440.03;5052169;28;20380;-72
2023/09/28 22:10:17;;;;;;;47.60;37.05;;;;;;;21.17;79.76;101442.78;5052154;28;20915;-73
2023/09/28 22:12:42;;;;;;;44.83;35.13;;;;;;;21.16;80.06;101446.34;5052358;28;20375;-72
2023/09/28 22:15:11;;;;;;;47.63;36.33;;;;;;;21.14;80.16;101448.22;5052447;28;20808;-72
2023/09/28 22:17:39;;;;;;;46.92;35.25;;;;;;;21.14;80.55;101449.09;5052905;28;20761;-72
2023/09/28 22:20:06;;;;;;;43.88;34.75;;;;;;;21.12;79.80;101450.97;5053233;28;20378;-73
2023/09/28 22:22:34;;;;;;;41.70;33.22;;;;;;;21.13;80.22;101458.00;5053398;28;20372;-73
2023/09/28 22:25:00;;;;;;;42.05;33.05;;;;;;;21.13;80.35;101459.81;5052925;28;20835;-72
2023/09/28 22:27:33;;;;;;;41.50;33.20;;;;;;;21.11;79.46;101454.53;5053254;28;20384;-73
2023/09/28 22:30:05;;;;;;;40.75;33.50;;;;;;;21.11;79.68;101459.84;5052156;28;20390;-73
2023/09/28 22:32:34;;;;;;;43.20;32.85;;;;;;;21.09;79.73;101456.41;5068775;28;20383;-73
2023/09/28 22:35:02;;;;;;;43.97;34.22;;;;;;;21.09;79.40;101451.09;5069657;28;20466;-72
2023/09/28 22:37:27;;;;;;;41.15;32.20;;;;;;;21.07;79.15;101459.16;5053143;28;20455;-72
2023/09/28 22:39:54;;;;;;;41.40;31.97;;;;;;;21.07;79.41;101456.50;5052236;28;20402;-74
2023/09/28 22:42:23;;;;;;;39.28;31.92;;;;;;;21.06;78.44;101451.25;5053389;28;20393;-74
2023/09/28 22:44:48;;;;;;;41.55;31.58;;;;;;;21.06;78.76;101451.25;5053548;28;20850;-74
2023/09/28 22:47:18;;;;;;;39.53;31.10;;;;;;;21.06;79.01;101445.91;5052680;28;20399;-73
2023/09/28 22:49:44;;;;;;;40.53;31.83;;;;;;;21.05;78.18;101441.56;5052719;28;20375;-74
2023/09/28 22:52:13;;;;;;;40.13;31.63;;;;;;;21.05;78.70;101444.22;5052489;28;20379;-73
2023/09/28 22:54:41;;;;;;;37.63;30.65;;;;;;;21.05;79.36;101449.53;5051873;28;20380;-73
2023/09/28 22:57:07;;;;;;;38.05;31.02;;;;;;;21.04;78.88;101442.47;5055774;28;20371;-73
2023/09/28 22:59:35;;;;;;;38.70;30.13;;;;;;;21.01;78.88;101437.31;5052614;28;20399;-73
2023/09/28 23:02:03;;;;;;;39.83;31.15;;;;;;;21.01;78.61;101439.97;5051531;28;20693;-73
2023/09/28 23:04:32;;;;;;;38.33;30.45;;;;;;;21.02;79.02;101433.69;5052511;28;20398;-73
2023/09/28 23:06:57;;;;;;;36.93;29.67;;;;;;;21.03;79.00;101435.44;5056308;28;20374;-73
2023/09/28 23:09:26;;;;;;;37.23;29.90;;;;;;;21.00;78.04;101430.25;5055337;28;20373;-73
2023/09/28 23:11:55;;;;;;;36.58;28.73;;;;;;;21.01;78.11;101432.84;5057873;28;20757;-73
2023/09/28 23:14:20;;;;;;;38.13;30.38;;;;;;;21.00;78.78;101424.91;5058581;28;20391;-74
2023/09/28 23:16:59;;;;;;;34.53;28.77;;;;;;;21.01;79.02;101426.66;5055390;28;20693;-73
2023/09/28 23:19:27;;;;;;;37.38;29.10;;;;;;;21.00;78.38;101424.91;5055954;28;20433;-73
2023/09/28 23:21:54;;;;;;;34.53;28.17;;;;;;;20.99;77.85;101417.91;5055240;28;20382;-74
2023/09/28 23:24:22;;;;;;;34.10;28.23;;;;;;;20.99;78.63;101413.44;5056051;28;20379;-73
2023/09/28 23:26:50;;;;;;;35.53;28.55;;;;;;;21.00;78.61;101422.25;5055946;28;20411;-72
2023/09/28 23:29:19;;;;;;;37.08;28.10;;;;;;;20.98;77.83;101418.84;5055880;28;20379;-71
2023/09/28 23:31:47;;;;;;;34.05;28.27;;;;;;;20.97;77.88;101425.94;5054993;28;20388;-73
2023/09/28 23:34:16;;;;;;;35.60;27.53;;;;;;;20.97;78.02;101425.94;5055752;28;20375;-70
2023/09/28 23:36:41;;;;;;;33.97;27.48;;;;;;;20.97;78.40;101431.25;5054780;28;20510;-72
2023/09/28 23:39:14;;;;;;;34.90;27.83;;;;;;;20.94;77.42;101431.41;5054716;28;20392;-72
2023/09/28 23:41:46;;;;;;;33.50;26.85;;;;;;;20.96;77.78;101436.66;5055524;28;20817;-72
2023/09/28 23:44:17;;;;;;;33.22;26.38;;;;;;;20.96;77.75;101439.31;5054861;28;20470;-72
2023/09/28 23:46:43;;;;;;;35.15;27.30;;;;;;;20.94;77.03;101441.16;5055857;28;20371;-73
2023/09/28 23:49:09;;;;;;;34.30;26.97;;;;;;;20.94;78.47;101443.84;5054655;28;20690;-73
2023/09/28 23:51:38;;;;;;;33.17;26.67;;;;;;;20.95;77.72;101442.88;5055419;28;20520;-72
2023/09/28 23:54:08;;;;;;;31.00;25.92;;;;;;;20.95;77.92;101442.88;5055338;28;20371;-73
2023/09/28 23:56:37;;;;;;;29.70;25.03;;;;;;;20.94;77.45;101443.84;5055270;28;20375;-73
2023/09/28 23:59:06;;;;;;;32.88;25.67;;;;;;;20.93;78.23;101440.31;5055295;28;20390;-73
